.
WxDataArchive / Data Records for 2012-06-03
2012-06-02 June 2012 2012-06-04

Data Records for Sunday, 03 June 2012

Time	Temp	Chill	HIndex	Humid	Dewpt	 Wind 	HiWind	WindDir	Rain 	Barom 
-----	----	-----	------	-----	-----	------	------	-------	-----	----- 
00:00	57.8	57.8	57.8	73	49.2	0	1	248	0.00	29.794 
00:05	57.8	57.8	57.8	73	49.2	0	2	248	0.00	29.794 
00:10	57.8	57.8	57.8	73	49.2	0	2	248	0.00	29.794 
00:15	57.8	57.8	57.8	74	49.6	0	2	248	0.00	29.791 
00:20	57.8	57.8	57.8	74	49.6	0	2	248	0.00	29.791 
00:25	57.8	57.8	57.8	74	49.6	0	2	248	0.00	29.791 
00:30	57.8	57.8	57.8	74	49.6	0	3	248	0.00	29.793 
00:35	57.8	57.8	57.8	75	49.9	0	3	248	0.00	29.793 
00:40	57.8	57.8	57.8	75	49.9	0	1	248	0.00	29.793 
00:45	57.8	57.8	57.8	75	49.9	0	2	248	0.00	29.795 
00:50	58.0	58.0	58.0	75	50.1	0	2	248	0.00	29.795 
00:55	58.0	58.0	58.0	75	50.1	0	1	248	0.00	29.795 
01:00	58.0	58.0	58.0	75	50.1	0	2	248	0.00	29.798 
01:05	58.1	58.1	58.1	75	50.2	0	2	248	0.00	29.798 
01:10	58.1	58.1	58.1	75	50.2	0	2	248	0.00	29.798 
01:15	58.1	58.1	58.1	75	50.2	0	2	248	0.00	29.794 
01:20	58.0	58.0	58.0	75	50.1	0	3	248	0.00	29.794 
01:25	58.0	58.0	58.0	75	50.1	0	2	248	0.00	29.794 
01:30	58.0	58.0	58.0	75	50.1	0	1	248	0.00	29.793 
01:35	58.0	58.0	58.0	75	50.1	0	2	248	0.00	29.793 
01:40	58.0	58.0	58.0	75	50.1	0	2	248	0.00	29.793 
01:45	58.0	58.0	58.0	75	50.1	0	1	248	0.00	29.792 
01:50	58.0	58.0	58.0	75	50.1	0	3	248	0.00	29.792 
01:55	57.8	57.8	57.8	76	50.3	0	2	248	0.00	29.792 
02:00	57.8	57.8	57.8	76	50.3	0	3	248	0.00	29.790 
02:05	57.8	57.8	57.8	76	50.3	0	1	248	0.00	29.790 
02:10	57.8	57.8	57.8	76	50.3	0	3	248	0.00	29.790 
02:15	57.6	57.6	57.6	77	50.4	0	3	248	0.00	29.786 
02:20	57.5	57.5	57.5	77	50.3	1	2	248	0.00	29.786 
02:25	57.5	57.5	57.5	77	50.3	1	3	248	0.00	29.786 
02:30	57.3	57.3	57.3	78	50.5	1	2	248	0.00	29.785 
02:35	57.3	57.3	57.3	78	50.5	1	2	248	0.00	29.785 
02:40	57.2	57.2	57.2	79	50.7	1	3	248	0.00	29.785 
02:45	57.2	57.2	57.2	79	50.7	1	3	248	0.00	29.782 
02:50	57.0	57.0	57.0	79	50.5	1	4	90	0.00	29.782 
02:55	56.9	56.9	56.9	79	50.5	1	3	90	0.00	29.782 
03:00	56.9	56.9	56.9	80	50.8	0	2	90	0.00	29.782 
03:05	56.7	56.7	56.7	80	50.6	0	2	90	0.00	29.782 
03:10	56.7	56.7	56.7	80	50.6	1	3	90	0.00	29.782 
03:15	56.6	56.6	56.6	81	50.8	0	3	68	0.00	29.783 
03:20	56.6	56.6	56.6	81	50.8	1	4	68	0.00	29.783 
03:25	56.5	56.5	56.5	81	50.7	1	3	68	0.00	29.783 
03:30	56.3	56.3	56.3	81	50.5	1	4	248	0.00	29.781 
03:35	56.3	56.3	56.3	81	50.5	1	3	248	0.00	29.781 
03:40	56.2	56.2	56.2	82	50.8	1	4	248	0.00	29.781 
03:45	56.0	56.0	56.0	82	50.6	0	3	248	0.00	29.786 
03:50	55.9	55.9	55.9	82	50.5	0	1	248	0.00	29.786 
03:55	55.7	55.7	55.7	82	50.3	0	2	248	0.00	29.786 
04:00	55.7	55.7	55.7	83	50.6	0	2	248	0.00	29.782 
04:05	55.6	55.6	55.6	83	50.5	0	2	248	0.00	29.782 
04:10	55.4	55.4	55.4	83	50.3	0	2	248	0.00	29.782 
04:15	55.4	55.4	55.4	84	50.6	0	2	248	0.00	29.783 
04:20	55.3	55.3	55.3	84	50.5	0	2	248	0.00	29.783 
04:25	55.3	55.3	55.3	84	50.5	0	2	248	0.00	29.783 
04:30	55.3	55.3	55.3	84	50.5	0	3	248	0.00	29.781 
04:35	55.4	55.4	55.4	84	50.6	1	3	248	0.00	29.781 
04:40	55.3	55.3	55.3	84	50.5	0	2	248	0.00	29.781 
04:45	55.3	55.3	55.3	84	50.5	1	2	248	0.00	29.785 
04:50	55.3	55.3	55.3	84	50.5	0	2	248	0.00	29.785 
04:55	55.1	55.1	55.1	84	50.4	1	2	248	0.00	29.785 
05:00	55.1	55.1	55.1	84	50.4	1	2	248	0.00	29.785 
05:05	55.1	55.1	55.1	85	50.7	1	3	248	0.00	29.785 
05:10	55.0	55.0	55.0	85	50.6	0	2	248	0.00	29.785 
05:15	55.0	55.0	55.0	85	50.6	1	3	248	0.00	29.786 
05:20	54.8	54.8	54.8	85	50.4	0	3	248	0.00	29.786 
05:25	54.8	54.8	54.8	85	50.4	1	3	248	0.00	29.786 
05:30	54.8	54.8	54.8	85	50.4	0	2	248	0.00	29.790 
05:35	54.7	54.7	54.7	86	50.6	1	3	248	0.00	29.790 
05:40	54.5	54.5	54.5	86	50.4	1	2	248	0.00	29.790 
05:45	54.5	54.5	54.5	86	50.4	0	2	248	0.00	29.797 
05:50	54.4	54.4	54.4	86	50.3	0	2	248	0.00	29.797 
05:55	54.4	54.4	54.4	87	50.6	1	3	248	0.00	29.797 
06:00	54.2	54.2	54.2	87	50.4	0	2	248	0.00	29.799 
06:05	54.2	54.2	54.2	87	50.4	1	2	248	0.00	29.799 
06:10	54.1	54.1	54.1	87	50.3	0	1	248	0.00	29.799 
06:15	54.1	54.1	54.1	88	50.6	0	2	248	0.00	29.797 
06:20	54.1	54.1	54.1	88	50.6	0	1	248	0.00	29.797 
06:25	54.1	54.1	54.1	88	50.6	0	2	248	0.00	29.797 
06:30	54.1	54.1	54.1	88	50.6	0	3	248	0.00	29.793 
06:35	54.1	54.1	54.1	88	50.6	0	3	248	0.00	29.793 
06:40	54.2	54.2	54.2	88	50.7	0	2	248	0.00	29.793 
06:45	54.2	54.2	54.2	88	50.7	0	2	248	0.00	29.793 
06:50	54.4	54.4	54.4	88	50.9	0	2	248	0.00	29.793 
06:55	54.5	54.5	54.5	88	51.0	0	2	248	0.00	29.793 
07:00	54.5	54.5	54.5	88	51.0	1	3	248	0.00	29.791 
07:05	54.8	54.8	54.8	88	51.3	1	4	248	0.00	29.791 
07:10	55.0	55.0	55.0	88	51.5	1	3	270	0.00	29.791 
07:15	55.1	55.1	55.1	88	51.6	1	4	270	0.00	29.797 
07:20	55.4	55.4	55.4	87	51.6	1	4	270	0.00	29.797 
07:25	55.6	55.6	55.6	87	51.8	0	2	225	0.00	29.797 
07:30	55.9	55.9	55.9	86	51.8	1	4	225	0.00	29.798 
07:35	56.2	56.2	56.2	86	52.1	1	3	225	0.00	29.798 
07:40	56.5	56.5	56.5	85	52.0	2	4	225	0.00	29.798 
07:45	56.7	56.7	56.7	84	51.9	1	4	248	0.00	29.805 
07:50	57.0	57.0	57.0	84	52.2	1	4	248	0.00	29.805 
07:55	57.3	57.3	57.3	83	52.2	2	4	270	0.00	29.805 
08:00	57.5	57.5	57.5	83	52.4	1	4	270	0.00	29.801 
08:05	58.0	58.0	58.0	83	52.9	1	3	270	0.00	29.801 
08:10	58.4	58.4	58.4	82	52.9	1	3	270	0.00	29.801 
08:15	58.9	58.9	58.9	81	53.1	1	4	270	0.00	29.800 
08:20	59.3	59.3	59.3	80	53.1	2	4	270	0.00	29.800 
08:25	59.8	59.8	59.8	79	53.3	2	4	270	0.00	29.800 
08:30	60.2	60.2	60.2	78	53.3	1	3	270	0.00	29.798 
08:35	60.7	60.7	60.7	77	53.4	3	6	270	0.00	29.798 
08:40	61.0	61.0	61.0	76	53.4	2	4	270	0.00	29.798 
08:45	61.3	61.3	61.3	76	53.7	2	4	270	0.00	29.806 
08:50	62.0	62.0	62.0	75	54.0	2	5	270	0.00	29.806 
08:55	62.6	62.6	62.6	74	54.2	1	3	270	0.00	29.806 
09:00	62.9	62.9	62.9	73	54.1	2	5	270	0.00	29.803 
09:05	63.4	63.4	63.4	71	53.8	2	6	270	0.00	29.803 
09:10	63.7	63.7	63.7	72	54.5	2	4	270	0.00	29.803 
09:15	64.2	64.2	64.2	71	54.6	2	4	270	0.00	29.805 
09:20	64.5	64.5	64.5	69	54.1	2	4	270	0.00	29.805 
09:25	65.0	65.0	65.0	68	54.2	2	4	292	0.00	29.805 
09:30	65.6	65.6	65.6	67	54.3	2	4	270	0.00	29.809 
09:35	66.0	66.0	66.0	66	54.3	2	5	270	0.00	29.809 
09:40	66.1	66.1	66.1	66	54.4	2	6	270	0.00	29.809 
09:45	66.4	66.4	66.4	64	53.8	3	7	270	0.00	29.811 
09:50	66.9	66.9	66.9	63	53.9	3	6	292	0.00	29.811 
09:55	67.4	67.4	67.4	62	53.9	2	5	292	0.00	29.811 
10:00	67.9	67.9	67.9	60	53.5	2	6	270	0.00	29.809 
10:05	68.3	68.3	68.3	59	53.4	2	5	270	0.00	29.809 
10:10	68.8	68.8	68.8	59	53.9	2	5	270	0.00	29.809 
10:15	69.3	69.3	69.3	58	53.9	2	4	270	0.00	29.810 
10:20	69.8	69.8	69.8	55	52.9	3	5	270	0.00	29.810 
10:25	69.9	69.9	69.9	53	52.0	3	5	270	0.00	29.810 
10:30	70.1	70.1	70.1	52	51.6	3	6	270	0.00	29.807 
10:35	70.4	70.4	70.4	53	52.4	2	5	270	0.00	29.807 
10:40	70.9	70.9	70.9	51	51.9	2	5	270	0.00	29.807 
10:45	71.3	71.3	71.3	50	51.7	2	6	270	0.00	29.808 
10:50	71.6	71.6	71.6	51	52.5	2	5	270	0.00	29.808 
10:55	71.8	71.8	71.8	49	51.6	3	7	270	0.00	29.808 
11:00	72.0	72.0	72.0	49	51.8	3	6	270	0.00	29.809 
11:05	72.1	72.1	72.1	49	51.9	3	6	270	0.00	29.809 
11:10	72.8	72.8	72.8	47	51.4	1	4	270	0.00	29.809 
11:15	73.2	73.2	73.2	44	50.0	3	6	270	0.00	29.813 
11:20	73.2	73.2	73.2	45	50.6	3	5	270	0.00	29.813 
11:25	73.7	73.7	73.7	44	50.4	2	4	270	0.00	29.813 
11:30	73.9	73.9	73.9	42	49.3	3	7	270	0.00	29.810 
11:35	74.0	74.0	74.0	41	48.8	3	6	270	0.00	29.810 
11:40	74.2	74.2	74.2	40	48.3	3	6	270	0.00	29.810 
11:45	74.4	74.4	74.4	39	47.8	3	7	270	0.00	29.809 
11:50	75.1	75.1	77.3	36	46.3	4	7	270	0.00	29.809 
11:55	75.1	75.1	77.3	36	46.3	3	9	270	0.00	29.809 
12:00	75.3	75.3	77.4	35	45.7	3	6	270	0.00	29.807 
12:05	75.6	75.6	77.3	33	44.5	3	7	270	0.00	29.807 
12:10	75.6	75.6	77.2	31	42.8	3	7	270	0.00	29.807 
12:15	75.6	75.6	77.3	33	44.5	3	7	270	0.00	29.807 
12:20	75.8	75.8	77.3	32	43.8	3	5	270	0.00	29.807 
12:25	76.0	76.0	77.5	33	44.8	3	7	270	0.00	29.807 
12:30	76.3	76.3	77.4	30	42.6	3	9	270	0.00	29.805 
12:35	76.3	76.3	77.5	32	44.3	2	5	292	0.00	29.805 
12:40	76.7	76.7	77.5	30	42.9	4	7	270	0.00	29.805 
12:45	77.2	77.2	77.9	33	45.8	3	7	248	0.00	29.803 
12:50	77.6	77.6	78.1	32	45.4	3	6	248	0.00	29.803 
12:55	77.2	77.2	77.8	30	43.3	3	6	315	0.00	29.803 
13:00	76.0	76.0	77.3	30	42.3	3	7	315	0.00	29.809 
13:05	76.1	76.1	77.4	31	43.3	3	5	292	0.00	29.809 
13:10	77.4	77.4	77.9	31	44.4	3	6	270	0.00	29.809 
13:15	77.7	77.7	77.9	29	42.9	4	9	292	0.00	29.803 
13:20	77.6	77.6	78.0	31	44.5	4	7	270	0.00	29.803 
13:25	77.6	77.6	78.0	31	44.5	2	6	270	0.00	29.803 
13:30	77.9	77.9	78.1	30	43.9	2	4	270	0.00	29.800 
13:35	78.1	78.1	78.2	30	44.1	3	7	270	0.00	29.800 
13:40	77.7	77.7	78.0	30	43.8	3	6	270	0.00	29.800 
13:45	77.7	77.7	77.8	28	42.0	4	7	270	0.00	29.799 
13:50	77.6	77.6	77.9	30	43.7	2	6	292	0.00	29.799 
13:55	78.1	78.1	78.0	27	41.4	3	7	270	0.00	29.799 
14:00	77.9	77.9	77.9	28	42.1	3	7	270	0.00	29.793 
14:05	77.9	77.9	78.1	31	44.8	3	7	338	0.00	29.793 
14:10	78.3	78.3	78.3	30	44.3	3	5	270	0.00	29.793 
14:15	78.3	78.3	78.2	29	43.4	5	7	270	0.00	29.798 
14:20	78.1	78.1	78.2	30	44.1	4	8	270	0.00	29.798 
14:25	78.1	78.1	78.1	29	43.2	3	7	270	0.00	29.798 
14:30	78.1	78.1	78.1	29	43.2	2	5	292	0.00	29.794 
14:35	78.6	78.6	78.2	26	40.8	4	9	270	0.00	29.794 
14:40	78.5	78.5	78.2	27	41.7	3	6	270	0.00	29.794 
14:45	78.8	78.8	78.3	27	42.0	2	7	270	0.00	29.791 
14:50	79.2	79.2	78.5	26	41.3	3	6	270	0.00	29.791 
14:55	79.2	79.2	78.4	25	40.3	3	8	270	0.00	29.791 
15:00	78.6	78.6	78.1	25	39.8	3	6	292	0.00	29.791 
15:05	78.5	78.5	78.0	25	39.7	4	7	270	0.00	29.791 
15:10	77.6	77.6	77.7	26	40.0	3	7	270	0.00	29.791 
15:15	77.7	77.7	77.8	28	42.0	3	7	270	0.00	29.790 
15:20	77.4	77.4	77.7	28	41.7	3	7	292	0.00	29.790 
15:25	77.9	77.9	77.9	27	41.2	3	7	292	0.00	29.790 
15:30	77.6	77.6	77.7	27	41.0	3	6	270	0.00	29.790 
15:35	76.8	76.8	77.4	27	40.3	3	7	292	0.00	29.790 
15:40	77.0	77.0	77.5	28	41.4	3	7	292	0.00	29.790 
15:45	77.4	77.4	77.6	27	40.8	3	6	270	0.00	29.791 
15:50	77.6	77.6	77.7	26	40.0	4	7	270	0.00	29.791 
15:55	78.1	78.1	77.9	26	40.4	4	12	270	0.00	29.791 
16:00	78.5	78.5	78.0	25	39.7	3	9	292	0.00	29.789 
16:05	78.6	78.6	78.1	25	39.8	3	6	270	0.00	29.789 
16:10	78.3	78.3	77.9	24	38.5	4	6	270	0.00	29.789 
16:15	78.6	78.6	78.1	25	39.8	3	6	270	0.00	29.784 
16:20	79.0	79.0	78.2	24	39.1	3	7	315	0.00	29.784 
16:25	79.2	79.2	78.4	25	40.3	3	6	292	0.00	29.784 
16:30	78.6	78.6	78.0	24	38.8	3	6	292	0.00	29.779 
16:35	78.5	78.5	78.0	25	39.7	3	7	292	0.00	29.779 
16:40	78.6	78.6	78.0	23	37.7	2	7	292	0.00	29.779 
16:45	78.6	78.6	78.0	24	38.8	3	6	292	0.00	29.773 
16:50	78.8	78.8	78.1	23	37.9	3	7	270	0.00	29.773 
16:55	78.6	78.6	78.0	23	37.7	2	7	292	0.00	29.773 
17:00	78.6	78.6	78.0	23	37.7	4	11	315	0.00	29.772 
17:05	78.5	78.5	77.8	22	36.5	3	9	315	0.00	29.772 
17:10	78.5	78.5	77.9	23	37.6	4	7	292	0.00	29.772 
17:15	78.5	78.5	77.9	23	37.6	2	6	315	0.00	29.771 
17:20	78.3	78.3	77.8	23	37.4	3	7	315	0.00	29.771 
17:25	78.5	78.5	78.0	24	38.7	3	6	315	0.00	29.771 
17:30	79.0	79.0	78.1	22	36.9	3	6	270	0.00	29.776 
17:35	79.0	79.0	78.1	22	36.9	3	9	270	0.00	29.776 
17:40	78.8	78.8	77.9	21	35.5	3	7	292	0.00	29.776 
17:45	78.6	78.6	77.9	22	36.6	2	9	270	0.00	29.774 
17:50	78.5	78.5	77.8	21	35.3	3	6	292	0.00	29.774 
17:55	78.3	78.3	77.7	21	35.1	2	6	292	0.00	29.774 
18:00	78.1	78.1	77.6	21	35.0	3	7	292	0.00	29.775 
18:05	78.1	78.1	77.6	22	36.1	2	6	292	0.00	29.775 
18:10	77.9	77.9	77.5	22	36.0	2	5	292	0.00	29.775 
18:15	77.9	77.9	77.5	21	34.8	3	9	292	0.00	29.775 
18:20	77.7	77.7	77.4	22	35.8	2	5	315	0.00	29.775 
18:25	77.4	77.4	77.3	22	35.6	2	6	315	0.00	29.775 
18:30	77.4	77.4	77.4	23	36.7	2	6	270	0.00	29.774 
18:35	77.6	77.6	77.5	23	36.9	2	6	270	0.00	29.774 
18:40	77.6	77.6	77.5	23	36.9	3	7	292	0.00	29.774 
18:45	77.4	77.4	77.4	24	37.8	2	6	270	0.00	29.774 
18:50	77.4	77.4	77.4	24	37.8	3	7	292	0.00	29.774 
18:55	77.4	77.4	77.4	24	37.8	2	5	292	0.00	29.774 
19:00	77.4	77.4	77.4	24	37.8	2	4	292	0.00	29.775 
19:05	77.2	77.2	77.4	25	38.6	2	5	292	0.00	29.775 
19:10	77.2	77.2	77.3	24	37.6	2	6	292	0.00	29.775 
19:15	77.0	77.0	77.2	24	37.4	2	5	315	0.00	29.777 
19:20	77.0	77.0	77.3	25	38.5	1	3	270	0.00	29.777 
19:25	77.0	77.0	77.2	24	37.4	3	6	292	0.00	29.777 
19:30	76.8	76.8	77.2	24	37.3	2	5	315	0.00	29.781 
19:35	76.7	76.7	77.2	25	38.2	2	4	338	0.00	29.781 
19:40	76.5	76.5	77.1	25	38.0	3	6	270	0.00	29.781 
19:45	76.3	76.3	77.0	25	37.9	2	5	270	0.00	29.785 
19:50	76.1	76.1	76.9	25	37.7	1	4	270	0.00	29.785 
19:55	76.0	76.0	77.0	26	38.6	1	4	270	0.00	29.785 
20:00	75.8	75.8	76.9	26	38.5	1	3	270	0.00	29.787 
20:05	75.6	75.6	76.7	25	37.3	2	6	315	0.00	29.787 
20:10	75.4	75.4	76.7	26	38.1	1	6	270	0.00	29.787 
20:15	75.3	75.3	76.8	27	39.0	0	2	270	0.00	29.784 
20:20	74.9	74.9	74.9	26	37.7	1	4	270	0.00	29.784 
20:25	74.6	74.6	74.6	27	38.4	1	3	270	0.00	29.784 
20:30	74.4	74.4	74.4	28	39.2	1	4	270	0.00	29.787 
20:35	74.0	74.0	74.0	28	38.8	1	2	315	0.00	29.787 
20:40	73.9	73.9	73.9	28	38.7	0	3	315	0.00	29.787 
20:45	73.5	73.5	73.5	29	39.3	0	1	315	0.00	29.787 
20:50	73.3	73.3	73.3	29	39.1	0	1	315	0.00	29.787 
20:55	73.0	73.0	73.0	30	39.7	0	1	315	0.00	29.787 
21:00	72.7	72.7	72.7	30	39.5	0	1	315	0.00	29.788 
21:05	72.3	72.3	72.3	31	40.0	0	1	315	0.00	29.788 
21:10	72.0	72.0	72.0	31	39.7	0	1	315	0.00	29.788 
21:15	71.6	71.6	71.6	32	40.2	0	0	---	0.00	29.785 
21:20	71.3	71.3	71.3	34	41.5	0	0	---	0.00	29.785 
21:25	70.8	70.8	70.8	34	41.0	0	0	---	0.00	29.785 
21:30	70.4	70.4	70.4	36	42.2	0	0	---	0.00	29.787 
21:35	70.1	70.1	70.1	37	42.6	0	0	---	0.00	29.787 
21:40	69.6	69.6	69.6	37	42.2	0	0	---	0.00	29.787 
21:45	69.3	69.3	69.3	38	42.6	0	0	---	0.00	29.790 
21:50	68.8	68.8	68.8	39	42.8	0	0	---	0.00	29.790 
21:55	68.4	68.4	68.4	40	43.1	0	0	---	0.00	29.790 
22:00	67.9	67.9	67.9	41	43.3	0	0	---	0.00	29.793 
22:05	67.4	67.4	67.4	42	43.5	0	0	---	0.00	29.793 
22:10	66.9	66.9	66.9	43	43.7	0	0	---	0.00	29.793 
22:15	66.4	66.4	66.4	44	43.8	0	0	---	0.00	29.795 
22:20	66.1	66.1	66.1	45	44.1	0	0	---	0.00	29.795 
22:25	65.8	65.8	65.8	46	44.4	0	0	---	0.00	29.795 
22:30	65.3	65.3	65.3	46	44.0	0	0	---	0.00	29.796 
22:35	65.0	65.0	65.0	47	44.3	0	0	---	0.00	29.796 
22:40	64.7	64.7	64.7	48	44.6	0	0	---	0.00	29.796 
22:45	64.3	64.3	64.3	48	44.2	0	0	---	0.00	29.803 
22:50	64.2	64.2	64.2	49	44.6	0	0	---	0.00	29.803 
22:55	63.9	63.9	63.9	50	44.9	0	0	---	0.00	29.803 
23:00	63.7	63.7	63.7	50	44.7	0	0	---	0.00	29.804 
23:05	63.4	63.4	63.4	50	44.4	0	0	---	0.00	29.804 
23:10	63.1	63.1	63.1	52	45.2	0	0	---	0.00	29.804 
23:15	62.9	62.9	62.9	53	45.5	0	0	---	0.00	29.801 
23:20	62.7	62.7	62.7	53	45.3	0	0	---	0.00	29.801 
23:25	62.7	62.7	62.7	53	45.3	0	0	---	0.00	29.801 
23:30	62.6	62.6	62.6	53	45.2	0	0	---	0.00	29.799 
23:35	62.6	62.6	62.6	53	45.2	0	0	---	0.00	29.799 
23:40	62.6	62.6	62.6	54	45.7	0	0	---	0.00	29.799 
23:45	62.9	62.9	62.9	53	45.5	0	1	315	0.00	29.792 
23:50	63.2	63.2	63.2	53	45.8	0	0	---	0.00	29.792 
23:55	63.5	63.5	63.5	52	45.6	0	0	---	0.00	29.792 

CoCoRaHS
IN-AL-39
A2 Web Hosting
Creative Commons License
GoDaddy
search engine by freefind advanced

loaded 2018-11-15 02:59:00 • last modified 2010-11-18 10:43:29
Privacy PolicyDisclaimer
• wx.awcolley.com is powered by PmWiki v.2002016 •
• all content (unless otherwise noted) © 2018 A W Colley